Time;durP1;ratioP1;P1;durP2;ratioP2;P2;SDS_P1;SDS_P2;PMS_P1;PMS_P2;Temp;Humidity;BMP_temperature;BMP_pressure;BME280_temperature;BME280_humidity;BME280_pressure;Samples;Min_cycle;Max_cycle;Signal;HPM_P1;HPM_P2
2021/01/30 00:02:24;;;;;;;38.25;5.85;;;7.70;97.80;;;;;;4866034;29;20113;-90
2021/01/30 00:04:50;;;;;;;38.47;6.85;;;7.70;97.50;;;;;;4846760;29;660430;-91
2021/01/30 00:07:17;;;;;;;25.08;5.60;;;7.70;97.70;;;;;;4872255;29;20081;-89
2021/01/30 00:09:43;;;;;;;41.13;7.07;;;7.80;97.70;;;;;;4886335;29;20028;-90
2021/01/30 00:12:09;;;;;;;30.50;5.40;;;7.80;97.60;;;;;;4910115;29;20038;-92
2021/01/30 00:14:37;;;;;;;40.45;6.15;;;7.80;97.40;;;;;;4889779;29;20085;-91
2021/01/30 00:17:06;;;;;;;26.08;5.22;;;7.80;97.40;;;;;;4874594;29;20033;-92
2021/01/30 00:19:32;;;;;;;30.75;4.63;;;7.80;97.30;;;;;;4885762;29;20038;-92
2021/01/30 00:22:01;;;;;;;30.50;4.78;;;7.80;97.30;;;;;;4883364;29;20542;-92
2021/01/30 00:24:29;;;;;;;26.65;4.70;;;7.80;97.40;;;;;;4888668;29;20114;-93
2021/01/30 00:27:00;;;;;;;26.67;5.57;;;7.90;97.20;;;;;;4885665;29;20076;-90
2021/01/30 01:31:34;;;;;;;42.00;5.03;;;7.60;99.30;;;;;;5731047;23;20148;-78
2021/01/30 01:34:03;;;;;;;43.05;5.10;;;7.30;99.80;;;;;;4941995;29;20012;-75
2021/01/30 02:02:26;;;;;;;34.03;4.55;;;7.70;99.40;;;;;;5733102;23;20049;-79
2021/01/30 02:04:57;;;;;;;22.33;4.45;;;7.60;99.60;;;;;;4925784;29;20013;-78
2021/01/30 02:07:24;;;;;;;24.40;4.18;;;7.20;99.40;;;;;;4941109;29;20098;-79
2021/01/30 04:27:29;;;;;;;12.02;1.15;;;6.90;98.30;;;;;;1289953;23;20311;-81
2021/01/30 21:08:31;;;;;;;16.08;7.22;;;4.40;91.60;;;;;;5945760;23;20034;-76
2021/01/30 21:34:07;;;;;;;16.38;6.05;;;4.50;91.20;;;;;;4888711;29;20057;-90
2021/01/30 21:36:32;;;;;;;14.90;6.53;;;4.50;90.80;;;;;;4887990;29;20037;-92
2021/01/30 21:38:58;;;;;;;20.05;6.85;;;4.50;91.10;;;;;;4936672;23;20022;-88
2021/01/30 21:41:24;;;;;;;14.88;6.30;;;4.50;90.70;;;;;;4920017;29;20402;-96
2021/01/30 21:43:50;;;;;;;21.55;6.95;;;4.40;91.30;;;;;;4884243;29;20037;-95
2021/01/30 21:46:16;;;;;;;9.77;6.30;;;4.50;90.70;;;;;;4895941;29;20033;-95
2021/01/30 21:48:41;;;;;;;13.50;6.30;;;4.50;90.90;;;;;;4892293;29;20048;-95
2021/01/30 21:51:08;;;;;;;18.73;7.65;;;4.50;91.20;;;;;;4889895;29;20040;-91
2021/01/30 21:53:36;;;;;;;14.15;5.95;;;4.50;90.60;;;;;;4891626;29;20045;-92
2021/01/30 21:56:02;;;;;;;18.90;7.57;;;4.40;91.10;;;;;;4896311;29;20025;-93
2021/01/30 21:58:28;;;;;;;15.05;6.70;;;4.50;90.80;;;;;;4895669;29;20056;-91
2021/01/30 22:00:54;;;;;;;12.88;6.57;;;4.50;90.90;;;;;;4894285;29;20029;-94
2021/01/30 22:03:20;;;;;;;15.15;7.35;;;4.50;90.60;;;;;;4897119;29;20024;-93
2021/01/30 22:05:45;;;;;;;;;;;4.50;90.80;;;;;;4898249;29;20029;-91
2021/01/30 22:08:11;;;;;;;13.23;6.72;;;4.50;90.80;;;;;;4882314;29;19923;-92
2021/01/30 22:10:39;;;;;;;12.40;6.88;;;4.50;90.60;;;;;;4893098;29;20498;-89
2021/01/30 22:13:06;;;;;;;14.27;6.70;;;4.50;90.30;;;;;;4902023;29;20036;-90
2021/01/30 22:15:32;;;;;;;19.38;7.45;;;4.40;90.30;;;;;;4897597;29;20032;-92
2021/01/30 22:17:58;;;;;;;23.55;7.07;;;4.40;90.30;;;;;;4889933;29;20116;-91
2021/01/30 22:20:24;;;;;;;17.38;6.88;;;4.40;90.50;;;;;;4876218;29;20060;-91
2021/01/30 22:22:49;;;;;;;;;;;4.40;90.80;;;;;;4896071;29;20029;-93
2021/01/30 22:25:15;;;;;;;15.05;6.68;;;4.50;90.50;;;;;;4894944;29;20145;-90
2021/01/30 22:27:41;;;;;;;14.35;6.20;;;4.40;90.60;;;;;;4909124;29;20096;-91
2021/01/30 22:30:07;;;;;;;13.48;7.07;;;4.50;90.60;;;;;;4895305;29;20161;-90
2021/01/30 22:32:35;;;;;;;17.50;7.13;;;4.50;90.30;;;;;;4886527;29;20082;-93
2021/01/30 22:35:00;;;;;;;14.07;7.05;;;4.40;90.50;;;;;;4868086;29;20025;-93
2021/01/30 22:37:26;;;;;;;11.43;6.63;;;4.40;90.40;;;;;;4874256;29;20402;-93
2021/01/30 22:39:52;;;;;;;17.00;7.10;;;4.40;90.60;;;;;;4879675;29;20056;-92
2021/01/30 22:42:17;;;;;;;13.50;7.40;;;4.40;90.70;;;;;;4879975;29;20064;-91
2021/01/30 22:44:43;;;;;;;16.35;7.40;;;4.40;90.30;;;;;;4871460;29;20055;-92
2021/01/30 22:47:09;;;;;;;15.32;6.50;;;4.40;90.50;;;;;;4895856;29;20108;-95
2021/01/30 22:49:34;;;;;;;16.55;6.40;;;4.50;90.00;;;;;;4872676;29;20037;-95
2021/01/30 22:52:00;;;;;;;19.02;7.03;;;4.40;90.10;;;;;;4870858;29;20082;-92
2021/01/30 22:54:26;;;;;;;13.63;6.15;;;4.40;89.40;;;;;;4870113;29;20048;-89
2021/01/30 22:56:51;;;;;;;18.25;6.60;;;4.40;90.10;;;;;;4900910;29;20533;-90
2021/01/30 22:59:18;;;;;;;18.20;6.45;;;4.40;90.10;;;;;;4871862;29;20040;-90
2021/01/30 23:01:44;;;;;;;18.00;6.55;;;4.40;90.00;;;;;;4866921;29;20029;-92
2021/01/30 23:04:10;;;;;;;14.32;6.20;;;4.40;89.80;;;;;;4867769;29;20521;-90
2021/01/30 23:06:36;;;;;;;;;;;4.40;90.00;;;;;;4870555;29;20029;-90
2021/01/30 23:09:06;;;;;;;10.38;5.93;;;4.40;90.00;;;;;;4870186;29;20277;-90
2021/01/30 23:11:33;;;;;;;12.93;6.95;;;4.40;89.70;;;;;;4872697;29;20089;-91
2021/01/30 23:13:58;;;;;;;15.32;6.10;;;4.30;89.60;;;;;;4864530;29;20039;-91
2021/01/30 23:16:24;;;;;;;10.75;5.93;;;4.30;89.70;;;;;;4862781;29;20026;-90
2021/01/30 23:18:50;;;;;;;14.77;6.15;;;4.40;90.00;;;;;;4865999;29;20074;-90
2021/01/30 23:21:16;;;;;;;10.70;5.88;;;4.40;89.80;;;;;;4871917;29;20028;-90
2021/01/30 23:23:41;;;;;;;12.10;5.57;;;4.40;90.10;;;;;;4867081;29;20041;-90
2021/01/30 23:26:08;;;;;;;12.73;6.13;;;4.40;90.00;;;;;;4866109;29;20029;-90
2021/01/30 23:28:35;;;;;;;13.93;6.35;;;4.40;90.10;;;;;;4863280;29;20081;-88
2021/01/30 23:31:04;;;;;;;16.80;5.40;;;4.40;90.20;;;;;;4864724;29;20589;-90
2021/01/30 23:33:30;;;;;;;18.30;5.38;;;4.30;89.70;;;;;;4870945;29;20025;-90
2021/01/30 23:35:56;;;;;;;10.00;5.50;;;4.30;89.30;;;;;;4868583;29;20392;-91
2021/01/30 23:38:23;;;;;;;13.27;5.78;;;4.40;90.00;;;;;;4864724;29;20120;-89
2021/01/30 23:40:50;;;;;;;17.27;5.53;;;4.30;90.00;;;;;;4866194;29;20041;-89
2021/01/30 23:43:17;;;;;;;17.80;5.57;;;4.30;90.30;;;;;;4878636;29;20084;-91
2021/01/30 23:45:43;;;;;;;13.88;5.60;;;4.30;90.40;;;;;;4873390;29;20044;-90
2021/01/30 23:48:09;;;;;;;11.55;5.28;;;4.30;90.20;;;;;;4869806;29;20032;-91
2021/01/30 23:50:38;;;;;;;13.98;4.88;;;4.30;90.20;;;;;;4871872;29;20025;-91
2021/01/30 23:53:05;;;;;;;16.83;5.88;;;4.30;90.40;;;;;;4870290;29;20029;-91
2021/01/30 23:55:31;;;;;;;11.05;4.80;;;4.30;90.20;;;;;;4875060;29;20036;-90
2021/01/30 23:57:57;;;;;;;;;;;4.30;90.10;;;;;;4879308;29;20500;-91
